Time;durP1;ratioP1;P1;durP2;ratioP2;P2;SDS_P1;SDS_P2;PMS_P1;PMS_P2;Temp;Humidity;BMP_temperature;BMP_pressure;BME280_temperature;BME280_humidity;BME280_pressure;Samples;Min_cycle;Max_cycle;Signal;HPM_P1;HPM_P2
2022/03/30 00:01:56;;;;;;;27.52;14.75;;;14.10;70.10;;;;;;5053952;28;20034;-79
2022/03/30 00:04:22;;;;;;;24.98;14.05;;;14.10;70.00;;;;;;5040169;28;20114;-79
2022/03/30 00:06:48;;;;;;;32.10;15.90;;;14.10;70.00;;;;;;5055994;28;20028;-79
2022/03/30 00:09:13;;;;;;;26.70;15.05;;;14.00;70.30;;;;;;5054464;28;20025;-79
2022/03/30 00:11:39;;;;;;;29.70;16.52;;;14.00;70.30;;;;;;5055658;28;20028;-79
2022/03/30 00:14:05;;;;;;;28.25;14.73;;;14.00;70.30;;;;;;5054129;28;20029;-78
2022/03/30 00:16:33;;;;;;;31.58;15.80;;;14.00;70.50;;;;;;5055640;28;20025;-79
2022/03/30 00:18:59;;;;;;;34.97;16.38;;;14.00;70.60;;;;;;5054179;28;20079;-79
2022/03/30 00:21:25;;;;;;;27.55;15.20;;;13.90;70.60;;;;;;5039578;28;20041;-78
2022/03/30 00:23:52;;;;;;;27.30;15.32;;;14.00;70.70;;;;;;5035669;28;20014;-79
2022/03/30 00:26:18;;;;;;;29.17;15.43;;;13.80;71.20;;;;;;5035505;28;20052;-78
2022/03/30 00:28:44;;;;;;;31.58;13.95;;;13.90;70.90;;;;;;5034158;28;20029;-79
2022/03/30 00:31:11;;;;;;;33.42;15.80;;;13.90;70.70;;;;;;5034337;28;20041;-79
2022/03/30 00:33:37;;;;;;;26.55;15.57;;;13.90;70.80;;;;;;5035582;28;20526;-79
2022/03/30 00:36:03;;;;;;;26.23;14.43;;;13.90;70.80;;;;;;5034240;28;20033;-78
2022/03/30 00:38:29;;;;;;;29.77;15.10;;;13.90;70.90;;;;;;5035290;28;20025;-78
2022/03/30 00:40:55;;;;;;;27.92;15.75;;;13.90;70.80;;;;;;5035192;28;20029;-79
2022/03/30 00:43:20;;;;;;;24.75;15.00;;;13.90;70.70;;;;;;5033711;28;20533;-79
2022/03/30 00:45:46;;;;;;;29.25;15.48;;;13.90;70.90;;;;;;5035558;28;20029;-79
2022/03/30 00:48:12;;;;;;;30.30;16.05;;;13.90;70.90;;;;;;5039516;28;20052;-79
2022/03/30 00:50:38;;;;;;;30.77;14.75;;;13.90;71.10;;;;;;5033909;28;20033;-79
2022/03/30 00:53:05;;;;;;;26.17;15.13;;;13.90;71.20;;;;;;5035055;28;20045;-79
2022/03/30 00:55:31;;;;;;;34.67;14.85;;;13.90;70.80;;;;;;5050396;28;20391;-79
2022/03/30 00:57:58;;;;;;;25.98;14.68;;;13.90;70.80;;;;;;5033874;28;20026;-79
2022/03/30 01:00:25;;;;;;;28.65;16.25;;;13.90;70.50;;;;;;5043369;28;20503;-79
2022/03/30 01:02:51;;;;;;;31.80;15.13;;;13.90;71.00;;;;;;5033939;28;20018;-79
2022/03/30 01:05:17;;;;;;;29.17;15.45;;;13.90;70.90;;;;;;5034973;28;20029;-79
2022/03/30 01:07:44;;;;;;;28.98;14.10;;;13.80;70.90;;;;;;5034091;28;20030;-79
2022/03/30 01:10:11;;;;;;;30.73;14.75;;;13.80;71.20;;;;;;5036942;28;20424;-79
2022/03/30 01:12:41;;;;;;;28.95;14.40;;;13.90;71.00;;;;;;5037587;28;20036;-79
2022/03/30 01:15:12;;;;;;;29.42;15.20;;;13.90;71.10;;;;;;5039150;28;20041;-79
2022/03/30 01:17:38;;;;;;;30.48;15.23;;;13.90;71.00;;;;;;5037410;28;20045;-79
2022/03/30 01:20:09;;;;;;;30.23;16.13;;;13.90;70.70;;;;;;5039153;28;20037;-79
2022/03/30 01:22:35;;;;;;;28.65;15.25;;;13.80;71.20;;;;;;5037814;28;20037;-79
2022/03/30 01:25:01;;;;;;;29.08;15.18;;;13.80;71.10;;;;;;5038515;28;20551;-78
2022/03/30 01:27:26;;;;;;;35.42;17.42;;;13.80;71.20;;;;;;5038583;28;20144;-79
2022/03/30 01:32:37;;;;;;;28.70;16.40;;;13.80;71.30;;;;;;5039017;28;20041;-79
2022/03/30 01:35:04;;;;;;;33.35;15.40;;;13.70;71.70;;;;;;5038818;28;20034;-79
2022/03/30 01:37:31;;;;;;;28.65;15.73;;;13.80;71.60;;;;;;5038588;28;20419;-78
2022/03/30 01:39:59;;;;;;;32.20;15.30;;;13.70;71.60;;;;;;5037234;28;20034;-79
2022/03/30 01:42:26;;;;;;;30.42;15.77;;;13.80;71.60;;;;;;5038756;28;20051;-79
2022/03/30 01:44:52;;;;;;;36.50;16.10;;;13.70;71.80;;;;;;5038451;28;20057;-78
2022/03/30 01:47:19;;;;;;;29.02;15.68;;;13.70;71.90;;;;;;5047143;28;20017;-79
2022/03/30 01:49:46;;;;;;;31.27;15.70;;;13.70;72.00;;;;;;5057073;28;20379;-79
2022/03/30 01:52:14;;;;;;;29.67;15.18;;;13.60;72.20;;;;;;5057242;28;20438;-79
2022/03/30 01:54:41;;;;;;;30.20;15.85;;;13.70;72.00;;;;;;5055635;28;20117;-79
2022/03/30 01:57:08;;;;;;;27.65;14.30;;;13.60;72.50;;;;;;5058184;28;20511;-79
2022/03/30 01:59:34;;;;;;;30.42;15.90;;;13.70;72.20;;;;;;5063417;28;20052;-79
2022/03/30 02:02:02;;;;;;;29.05;15.25;;;13.70;71.90;;;;;;5041304;28;20488;-79
2022/03/30 02:04:29;;;;;;;35.22;17.02;;;13.70;71.80;;;;;;5036760;28;20044;-79
2022/03/30 02:06:54;;;;;;;31.92;16.05;;;13.70;71.60;;;;;;5038345;28;20454;-79
2022/03/30 02:09:20;;;;;;;36.03;17.05;;;13.70;72.10;;;;;;5038048;28;20109;-79
2022/03/30 02:11:46;;;;;;;30.33;16.77;;;13.70;72.00;;;;;;5038008;28;20033;-79
2022/03/30 02:14:12;;;;;;;36.15;16.38;;;13.60;72.30;;;;;;5037930;28;20399;-79
2022/03/30 02:16:38;;;;;;;32.20;17.30;;;13.50;72.70;;;;;;5038222;28;20017;-79
2022/03/30 02:19:04;;;;;;;37.38;17.00;;;13.50;72.90;;;;;;5055042;28;20491;-79
2022/03/30 02:21:30;;;;;;;36.53;17.80;;;13.30;73.10;;;;;;5055472;28;20036;-79
2022/03/30 02:23:55;;;;;;;35.75;17.95;;;13.30;73.70;;;;;;5043758;28;20044;-78
2022/03/30 02:26:21;;;;;;;43.40;19.30;;;13.30;73.40;;;;;;5036619;28;20030;-79
2022/03/30 02:28:51;;;;;;;42.35;18.95;;;13.30;73.50;;;;;;5037691;28;20492;-79
2022/03/30 02:31:18;;;;;;;39.88;18.70;;;13.30;73.80;;;;;;5036408;28;20021;-79
2022/03/30 02:33:44;;;;;;;36.85;19.65;;;13.30;73.50;;;;;;5036345;28;20045;-79
2022/03/30 02:36:10;;;;;;;45.03;22.35;;;13.30;73.50;;;;;;5036304;28;20507;-78
2022/03/30 02:38:36;;;;;;;42.40;21.70;;;13.30;73.90;;;;;;5036441;28;20522;-78
2022/03/30 02:41:03;;;;;;;43.78;21.23;;;13.30;73.70;;;;;;5037576;28;20121;-79
2022/03/30 02:43:29;;;;;;;45.63;21.45;;;13.30;73.70;;;;;;5036042;28;20037;-79
2022/03/30 02:45:54;;;;;;;46.50;21.35;;;13.20;74.30;;;;;;5037421;28;20032;-78
2022/03/30 02:48:22;;;;;;;43.60;22.10;;;13.20;74.40;;;;;;5045667;28;20029;-79
2022/03/30 02:50:53;;;;;;;46.65;22.45;;;13.10;74.60;;;;;;5036039;28;20045;-78
2022/03/30 02:53:19;;;;;;;49.50;22.30;;;13.20;74.50;;;;;;5037611;28;20805;-79
2022/03/30 02:55:45;;;;;;;45.15;22.90;;;13.20;74.50;;;;;;5035280;28;20037;-79
2022/03/30 02:58:11;;;;;;;50.15;24.10;;;13.20;74.60;;;;;;5035853;28;20029;-79
2022/03/30 03:00:38;;;;;;;61.80;26.92;;;13.20;74.40;;;;;;5070875;28;20039;-79
2022/03/30 03:03:04;;;;;;;55.05;25.70;;;13.20;74.30;;;;;;5077370;28;20767;-79
2022/03/30 03:05:32;;;;;;;58.83;25.70;;;13.10;74.60;;;;;;5066619;28;20025;-79
2022/03/30 03:08:01;;;;;;;61.38;28.88;;;13.00;74.90;;;;;;5037042;28;20068;-79
2022/03/30 03:10:28;;;;;;;59.60;26.63;;;13.10;74.60;;;;;;5037027;28;20109;-79
2022/03/30 03:12:54;;;;;;;62.85;26.55;;;13.00;74.90;;;;;;5036559;28;20014;-79
2022/03/30 03:15:21;;;;;;;61.40;28.23;;;13.10;74.90;;;;;;5035565;28;20018;-79
2022/03/30 03:17:46;;;;;;;67.93;28.48;;;13.00;75.30;;;;;;5036973;28;20032;-79
2022/03/30 03:20:12;;;;;;;59.92;25.48;;;12.80;75.60;;;;;;5036624;28;20026;-78
2022/03/30 03:22:38;;;;;;;72.80;28.50;;;13.00;75.50;;;;;;5036690;28;20457;-79
2022/03/30 03:25:05;;;;;;;74.30;28.40;;;13.10;75.30;;;;;;5035560;28;20565;-78
2022/03/30 03:27:31;;;;;;;58.72;26.55;;;13.00;75.20;;;;;;5042073;28;20462;-79
2022/03/30 03:29:56;;;;;;;67.80;27.98;;;13.00;75.10;;;;;;5056253;28;20079;-79
2022/03/30 03:32:22;;;;;;;66.45;27.50;;;12.90;75.20;;;;;;5056307;28;20104;-79
2022/03/30 03:34:48;;;;;;;73.60;30.67;;;12.70;75.60;;;;;;5042996;28;20029;-78
2022/03/30 03:37:14;;;;;;;70.53;29.38;;;12.70;75.80;;;;;;5036482;28;20053;-79
2022/03/30 03:39:40;;;;;;;72.20;28.63;;;12.60;76.10;;;;;;5035145;28;20040;-78
2022/03/30 03:42:06;;;;;;;73.45;29.38;;;12.60;76.30;;;;;;5036171;28;20025;-79
2022/03/30 03:44:32;;;;;;;66.63;26.83;;;12.70;75.90;;;;;;5035312;28;20033;-79
2022/03/30 03:46:58;;;;;;;62.80;26.95;;;12.80;75.40;;;;;;5038825;28;20025;-79
2022/03/30 03:49:23;;;;;;;60.47;26.17;;;12.70;75.70;;;;;;5055894;28;20056;-78
2022/03/30 03:51:49;;;;;;;60.30;26.80;;;12.70;75.90;;;;;;5056211;28;20029;-79
2022/03/30 03:54:15;;;;;;;64.95;26.65;;;12.70;75.60;;;;;;5041291;28;20171;-79
2022/03/30 03:56:40;;;;;;;63.40;27.45;;;12.50;76.00;;;;;;5036135;28;20468;-79
2022/03/30 03:59:06;;;;;;;63.67;27.25;;;12.70;75.90;;;;;;5056674;28;20033;-79
2022/03/30 04:01:32;;;;;;;71.88;26.90;;;12.70;75.70;;;;;;5075981;28;20056;-79
2022/03/30 04:03:58;;;;;;;70.05;27.33;;;12.60;76.00;;;;;;5040057;28;20030;-78
2022/03/30 04:06:25;;;;;;;69.38;27.48;;;12.70;76.00;;;;;;5043886;28;20043;-79
2022/03/30 04:08:51;;;;;;;78.15;28.20;;;12.80;75.20;;;;;;5055892;28;20510;-79
2022/03/30 04:11:16;;;;;;;75.28;28.48;;;12.80;75.40;;;;;;5055569;28;20033;-79
2022/03/30 04:13:42;;;;;;;82.15;30.45;;;12.80;75.40;;;;;;5054148;28;20115;-79
2022/03/30 04:16:08;;;;;;;68.05;27.55;;;12.80;75.60;;;;;;5055733;28;20033;-79
2022/03/30 04:18:33;;;;;;;79.18;29.92;;;12.90;74.90;;;;;;5055538;28;20156;-79
2022/03/30 04:20:59;;;;;;;74.80;29.35;;;12.90;75.00;;;;;;5054309;28;20171;-78
2022/03/30 04:23:25;;;;;;;79.70;30.05;;;12.90;75.00;;;;;;5037114;28;20033;-79
2022/03/30 04:25:50;;;;;;;81.05;29.33;;;12.80;75.20;;;;;;5035307;28;20068;-79
2022/03/30 04:28:17;;;;;;;87.97;31.67;;;12.80;75.90;;;;;;5034143;28;20509;-79
2022/03/30 04:30:43;;;;;;;73.22;27.23;;;12.80;75.60;;;;;;5038583;28;20059;-79
2022/03/30 04:33:09;;;;;;;80.88;30.83;;;12.80;75.70;;;;;;5050137;28;20018;-79
2022/03/30 04:35:36;;;;;;;90.88;30.63;;;12.70;76.20;;;;;;5034271;28;20037;-79
2022/03/30 04:38:01;;;;;;;75.00;26.35;;;12.70;76.20;;;;;;5042365;28;20028;-79
2022/03/30 04:40:28;;;;;;;74.70;27.58;;;12.80;75.70;;;;;;5055212;28;20064;-79
2022/03/30 04:42:54;;;;;;;76.07;27.80;;;12.80;75.60;;;;;;5042816;28;20021;-82
2022/03/30 04:45:21;;;;;;;76.03;30.00;;;12.80;75.90;;;;;;5034981;28;20034;-83
2022/03/30 04:47:47;;;;;;;80.00;27.45;;;12.70;76.40;;;;;;5043809;28;20159;-82
2022/03/30 04:50:13;;;;;;;78.68;29.10;;;12.80;76.10;;;;;;5055244;28;20043;-83
2022/03/30 04:55:27;;;;;;;76.50;27.90;;;12.50;76.70;;;;;;5072484;28;20374;-83
2022/03/30 04:57:53;;;;;;;73.68;28.20;;;12.50;77.00;;;;;;5072347;28;20035;-78
2022/03/30 05:00:19;;;;;;;77.68;28.67;;;12.40;77.40;;;;;;5071933;28;20033;-81
2022/03/30 05:02:45;;;;;;;74.68;28.85;;;12.50;77.00;;;;;;5067947;28;20641;-80
2022/03/30 05:05:11;;;;;;;86.43;29.92;;;12.60;76.70;;;;;;5071992;28;20387;-81
2022/03/30 05:07:37;;;;;;;84.32;29.95;;;12.60;76.60;;;;;;5071691;28;20135;-82
2022/03/30 05:10:05;;;;;;;82.90;30.70;;;12.80;75.90;;;;;;5067400;28;20017;-85
2022/03/30 05:12:31;;;;;;;80.93;29.52;;;12.80;75.50;;;;;;5068196;28;20040;-86
2022/03/30 05:14:57;;;;;;;87.25;32.70;;;12.90;75.20;;;;;;5072190;28;20518;-88
2022/03/30 05:17:23;;;;;;;83.45;28.67;;;12.90;75.20;;;;;;5063663;28;20388;-87
2022/03/30 05:19:49;;;;;;;75.97;26.70;;;12.80;75.50;;;;;;5057442;28;20016;-88
2022/03/30 05:22:15;;;;;;;87.32;31.60;;;12.90;75.00;;;;;;5072828;28;20029;-86
2022/03/30 05:24:41;;;;;;;81.35;30.98;;;12.90;74.80;;;;;;5066327;28;20545;-79
2022/03/30 05:27:09;;;;;;;77.78;30.88;;;12.80;75.10;;;;;;5052136;28;20060;-79
2022/03/30 05:29:35;;;;;;;78.90;30.33;;;12.80;75.20;;;;;;5051852;28;20040;-78
2022/03/30 05:32:01;;;;;;;81.53;31.58;;;12.80;75.10;;;;;;5051785;28;20025;-79
2022/03/30 05:34:27;;;;;;;94.57;32.35;;;12.80;75.10;;;;;;5059082;28;20029;-79
2022/03/30 05:36:53;;;;;;;83.85;32.03;;;12.80;75.10;;;;;;5070145;28;20028;-79
2022/03/30 05:39:19;;;;;;;85.80;31.63;;;12.70;75.50;;;;;;5071678;28;20487;-78
2022/03/30 05:41:44;;;;;;;85.32;31.42;;;12.70;75.80;;;;;;5056982;28;20484;-81
2022/03/30 05:44:10;;;;;;;79.68;33.10;;;12.70;75.50;;;;;;5051629;28;20041;-82
2022/03/30 05:46:36;;;;;;;88.35;33.25;;;12.70;75.90;;;;;;5054091;28;20059;-83
2022/03/30 05:49:04;;;;;;;88.03;32.42;;;12.70;75.70;;;;;;5069797;28;20403;-82
2022/03/30 05:51:30;;;;;;;88.97;32.67;;;12.80;75.40;;;;;;5064780;28;20025;-82
2022/03/30 05:53:56;;;;;;;94.22;35.63;;;12.80;75.30;;;;;;5061425;28;20037;-82
2022/03/30 05:57:00;;;;;;;91.78;33.63;;;12.60;75.70;;;;;;5069168;28;20108;-85
2022/03/30 05:59:07;;;;;;;84.45;31.73;;;12.50;76.70;;;;;;5069076;28;20039;-85
2022/03/30 06:01:34;;;;;;;81.07;33.75;;;12.60;76.20;;;;;;5069126;28;20503;-84
2022/03/30 06:04:00;;;;;;;92.20;33.83;;;12.60;76.10;;;;;;5067896;28;20020;-86
2022/03/30 06:06:25;;;;;;;85.22;32.42;;;12.50;76.40;;;;;;5056911;28;20082;-86
2022/03/30 06:08:51;;;;;;;91.90;33.63;;;12.60;76.20;;;;;;5055604;28;20036;-84
2022/03/30 06:11:17;;;;;;;95.60;36.15;;;12.70;76.20;;;;;;5057268;28;20027;-84
2022/03/30 06:13:42;;;;;;;101.65;37.80;;;12.60;76.00;;;;;;5051721;28;20911;-84
2022/03/30 06:16:09;;;;;;;90.18;36.70;;;12.70;75.90;;;;;;5055861;28;20036;-86
2022/03/30 06:18:34;;;;;;;88.80;35.53;;;12.70;75.70;;;;;;5051881;28;20037;-84
2022/03/30 06:21:00;;;;;;;88.55;36.85;;;12.70;75.70;;;;;;5051336;28;20021;-85
2022/03/30 06:23:26;;;;;;;96.53;35.70;;;12.70;75.90;;;;;;5053498;28;20039;-85
2022/03/30 06:25:53;;;;;;;85.43;33.22;;;12.70;75.90;;;;;;5056375;28;20860;-84
2022/03/30 06:28:23;;;;;;;87.07;35.28;;;12.70;75.80;;;;;;5054154;28;20451;-84
2022/03/30 06:30:49;;;;;;;85.97;36.23;;;12.60;76.10;;;;;;5054760;28;20035;-86
2022/03/30 06:33:15;;;;;;;100.25;38.03;;;12.50;76.50;;;;;;5052987;28;20650;-84
2022/03/30 06:35:41;;;;;;;96.28;37.65;;;12.40;76.70;;;;;;5052294;28;20028;-84
2022/03/30 06:38:08;;;;;;;95.85;39.13;;;12.50;76.80;;;;;;5054594;28;20056;-84
2022/03/30 06:40:34;;;;;;;100.50;38.63;;;12.60;76.30;;;;;;5055204;28;20024;-83
2022/03/30 06:43:00;;;;;;;104.28;38.90;;;12.60;76.30;;;;;;5057109;28;20356;-84
2022/03/30 06:45:29;;;;;;;85.60;36.85;;;12.70;76.00;;;;;;5056807;28;20025;-83
2022/03/30 06:47:54;;;;;;;98.47;39.25;;;12.80;75.50;;;;;;5055426;28;20057;-82
2022/03/30 06:50:20;;;;;;;102.50;38.75;;;12.70;75.60;;;;;;5037345;28;20048;-83
2022/03/30 06:52:46;;;;;;;98.55;38.08;;;12.60;76.30;;;;;;5037336;28;20164;-83
2022/03/30 06:55:14;;;;;;;108.43;42.50;;;12.60;76.80;;;;;;5036858;28;20358;-83
2022/03/30 06:57:40;;;;;;;98.72;40.00;;;12.50;76.80;;;;;;5048149;28;20089;-84
2022/03/30 07:00:07;;;;;;;99.07;37.75;;;12.70;76.20;;;;;;5054984;28;20483;-84
2022/03/30 07:02:32;;;;;;;103.28;41.05;;;12.70;75.80;;;;;;5036702;28;20032;-83
2022/03/30 07:04:58;;;;;;;102.40;38.17;;;12.70;76.30;;;;;;5036860;28;20033;-84
2022/03/30 07:10:15;;;;;;;98.72;38.78;;;12.70;76.10;;;;;;5036985;28;20416;-83
2022/03/30 07:12:41;;;;;;;101.93;39.20;;;12.50;76.70;;;;;;5053871;28;20108;-82
2022/03/30 07:15:07;;;;;;;99.63;39.30;;;12.60;76.60;;;;;;5056625;28;20028;-83
2022/03/30 07:17:33;;;;;;;106.80;37.28;;;12.50;76.90;;;;;;5054180;28;20029;-83
2022/03/30 07:19:59;;;;;;;102.82;39.30;;;12.50;76.80;;;;;;5048347;28;20026;-83
2022/03/30 07:22:25;;;;;;;89.72;36.53;;;12.50;76.50;;;;;;5068234;28;20063;-83
2022/03/30 07:24:51;;;;;;;100.03;38.17;;;12.50;76.80;;;;;;5035692;28;20492;-83
2022/03/30 07:27:17;;;;;;;84.25;36.55;;;12.50;76.60;;;;;;5051730;28;20064;-83
2022/03/30 07:29:43;;;;;;;96.90;39.40;;;12.60;76.60;;;;;;5036329;28;20041;-83
2022/03/30 07:32:09;;;;;;;86.45;37.35;;;12.50;77.10;;;;;;5068351;28;20026;-83
2022/03/30 07:34:36;;;;;;;90.25;36.85;;;12.70;76.40;;;;;;5036147;28;20041;-83
2022/03/30 07:37:03;;;;;;;89.25;34.60;;;12.70;76.40;;;;;;5036412;28;20057;-83
2022/03/30 07:39:29;;;;;;;86.25;35.25;;;12.80;76.10;;;;;;5051253;28;20028;-83
2022/03/30 07:41:55;;;;;;;86.65;34.63;;;12.90;75.70;;;;;;5054183;28;20029;-83
2022/03/30 07:44:20;;;;;;;83.28;32.17;;;12.80;75.90;;;;;;5054608;28;20033;-83
2022/03/30 07:46:48;;;;;;;78.10;32.83;;;12.90;75.20;;;;;;5037596;28;20040;-83
2022/03/30 07:49:15;;;;;;;82.50;31.30;;;12.80;75.00;;;;;;5054510;28;20033;-83
2022/03/30 07:51:41;;;;;;;80.25;31.00;;;12.80;75.20;;;;;;5054604;28;20063;-82
2022/03/30 07:54:07;;;;;;;74.18;32.20;;;12.70;75.50;;;;;;5055727;28;20049;-82
2022/03/30 07:56:32;;;;;;;70.00;30.23;;;12.80;75.40;;;;;;5044284;28;20096;-83
2022/03/30 07:59:00;;;;;;;73.97;31.60;;;12.80;75.10;;;;;;5069270;28;20089;-83
2022/03/30 08:01:26;;;;;;;68.28;28.50;;;12.70;75.20;;;;;;5048513;28;20053;-83
2022/03/30 08:03:52;;;;;;;64.68;27.05;;;12.70;75.20;;;;;;5035780;28;20116;-82
2022/03/30 08:06:17;;;;;;;71.97;29.83;;;12.80;75.10;;;;;;5034464;28;20053;-82
2022/03/30 08:08:43;;;;;;;64.90;27.20;;;12.70;75.20;;;;;;5035506;28;20034;-83
2022/03/30 08:11:09;;;;;;;55.97;28.27;;;12.50;76.20;;;;;;5041424;28;20017;-84
2022/03/30 08:13:35;;;;;;;65.80;29.30;;;12.60;75.60;;;;;;5055544;28;20162;-83
2022/03/30 08:16:01;;;;;;;63.83;27.23;;;12.80;75.10;;;;;;5055436;28;20053;-83
2022/03/30 08:18:26;;;;;;;61.35;26.45;;;12.80;75.20;;;;;;5053062;28;20471;-83
2022/03/30 08:23:36;;;;;;;57.50;27.42;;;12.90;74.60;;;;;;5044724;28;20044;-82
2022/03/30 08:26:03;;;;;;;58.80;27.50;;;12.90;74.30;;;;;;5035340;28;20026;-82
2022/03/30 08:28:28;;;;;;;62.30;27.98;;;13.00;74.50;;;;;;5067170;28;20055;-82
2022/03/30 08:30:54;;;;;;;64.32;29.05;;;13.00;74.20;;;;;;5035158;28;20104;-83
2022/03/30 08:33:23;;;;;;;70.65;27.52;;;13.00;74.40;;;;;;5038041;28;20033;-83
2022/03/30 08:35:50;;;;;;;52.75;25.90;;;13.10;74.30;;;;;;5054700;28;20910;-83
2022/03/30 08:38:16;;;;;;;57.53;26.63;;;12.90;74.00;;;;;;5053793;28;20027;-83
2022/03/30 08:40:42;;;;;;;61.20;26.50;;;13.00;74.50;;;;;;5033709;28;20029;-82
2022/03/30 08:43:08;;;;;;;64.53;25.42;;;13.00;74.40;;;;;;5035327;28;20030;-82
2022/03/30 08:45:33;;;;;;;57.10;27.02;;;13.10;74.00;;;;;;5035049;28;20531;-82
2022/03/30 08:48:00;;;;;;;52.60;24.35;;;13.00;73.80;;;;;;5043996;28;20036;-82
2022/03/30 08:50:26;;;;;;;54.20;26.25;;;12.90;74.40;;;;;;5035117;28;20126;-83
2022/03/30 08:52:55;;;;;;;58.83;25.80;;;12.90;74.30;;;;;;5034811;28;20671;-81
2022/03/30 08:55:21;;;;;;;58.13;26.70;;;12.80;75.20;;;;;;5034530;28;20073;-82
2022/03/30 08:57:47;;;;;;;55.78;26.80;;;12.60;75.40;;;;;;5067183;28;20060;-82
2022/03/30 09:00:19;;;;;;;56.47;25.95;;;12.50;75.90;;;;;;5053570;28;20021;-83
2022/03/30 09:02:49;;;;;;;51.50;24.45;;;12.40;76.20;;;;;;5041865;28;20036;-82
2022/03/30 09:05:25;;;;;;;51.70;24.50;;;12.50;76.20;;;;;;5034604;28;20025;-82
2022/03/30 09:08:10;;;;;;;50.45;22.30;;;12.50;76.10;;;;;;5034791;28;20116;-82
2022/03/30 09:10:37;;;;;;;51.50;22.85;;;12.60;75.40;;;;;;5036135;28;20031;-82
2022/03/30 09:13:05;;;;;;;42.97;20.10;;;12.40;76.20;;;;;;5048586;28;20028;-82
2022/03/30 09:15:31;;;;;;;49.40;21.63;;;12.50;76.30;;;;;;5034738;28;20381;-82
2022/03/30 09:18:03;;;;;;;42.55;21.70;;;12.50;75.70;;;;;;5034798;28;20519;-82
2022/03/30 09:20:29;;;;;;;48.90;21.52;;;12.50;75.60;;;;;;5034844;28;20021;-82
2022/03/30 09:22:57;;;;;;;46.63;22.75;;;12.30;76.70;;;;;;5050887;28;20037;-82
2022/03/30 09:25:27;;;;;;;46.35;22.02;;;12.30;76.60;;;;;;5054138;28;20017;-82
2022/03/30 09:27:55;;;;;;;52.85;23.75;;;12.50;76.50;;;;;;5054715;28;20055;-82
2022/03/30 09:30:22;;;;;;;45.55;22.95;;;12.50;76.30;;;;;;5037364;28;20037;-82
2022/03/30 09:32:49;;;;;;;49.83;23.35;;;12.50;76.50;;;;;;5034578;28;20040;-82
2022/03/30 09:35:29;;;;;;;52.83;25.00;;;12.40;76.70;;;;;;5034734;28;20440;-82
2022/03/30 09:38:11;;;;;;;56.42;25.10;;;12.30;77.10;;;;;;5066839;28;20034;-82
2022/03/30 09:40:46;;;;;;;61.88;26.25;;;12.50;77.00;;;;;;5035952;28;20037;-82
2022/03/30 09:43:20;;;;;;;65.07;28.40;;;12.50;76.70;;;;;;5038232;28;20022;-82
2022/03/30 09:45:47;;;;;;;60.78;27.80;;;12.60;76.30;;;;;;5049977;28;20024;-82
2022/03/30 09:48:17;;;;;;;63.03;28.02;;;12.90;75.90;;;;;;5058095;28;20107;-83
2022/03/30 09:50:48;;;;;;;64.63;28.10;;;13.20;74.40;;;;;;5044289;28;20022;-82
2022/03/30 09:53:15;;;;;;;59.08;29.30;;;13.20;74.90;;;;;;5070091;28;20037;-82
2022/03/30 09:56:12;;;;;;;65.13;28.02;;;13.30;73.80;;;;;;5038286;28;20361;-82
2022/03/30 09:58:39;;;;;;;58.85;27.27;;;13.40;73.70;;;;;;5037925;28;20029;-82
2022/03/30 10:01:10;;;;;;;63.35;28.20;;;13.40;72.50;;;;;;5089173;28;20403;-82
2022/03/30 10:03:55;;;;;;;56.72;26.63;;;13.70;71.60;;;;;;5055971;28;20099;-83
2022/03/30 10:06:31;;;;;;;58.83;27.30;;;14.00;71.70;;;;;;5037928;28;20403;-82
2022/03/30 10:08:58;;;;;;;59.75;27.88;;;14.20;69.90;;;;;;5038055;28;20037;-82
2022/03/30 10:11:26;;;;;;;52.20;24.88;;;14.20;70.30;;;;;;5076448;28;20036;-82
2022/03/30 10:13:58;;;;;;;61.47;27.88;;;13.90;71.00;;;;;;5057848;28;20029;-82
2022/03/30 10:16:24;;;;;;;59.60;25.52;;;13.80;70.20;;;;;;5051880;28;20388;-82
2022/03/30 10:18:51;;;;;;;62.47;27.60;;;13.70;71.10;;;;;;5046150;28;20033;-82
2022/03/30 10:21:29;;;;;;;57.38;26.85;;;13.70;71.20;;;;;;5037383;28;20037;-82
2022/03/30 10:24:41;;;;;;;61.75;28.70;;;13.60;71.10;;;;;;5037675;28;20082;-82
2022/03/30 10:27:22;;;;;;;58.53;26.88;;;13.80;71.10;;;;;;5028253;28;20053;-82
2022/03/30 10:30:00;;;;;;;61.90;27.90;;;13.60;71.00;;;;;;5051120;28;20088;-83
2022/03/30 10:32:33;;;;;;;65.78;29.17;;;13.60;71.00;;;;;;5056007;28;20032;-82
2022/03/30 10:35:13;;;;;;;65.88;28.48;;;13.60;71.20;;;;;;5057300;28;20025;-83
2022/03/30 10:37:43;;;;;;;70.47;29.13;;;13.70;71.30;;;;;;5039394;28;20167;-82
2022/03/30 10:40:14;;;;;;;52.58;25.42;;;13.80;70.10;;;;;;5041946;28;20449;-82
2022/03/30 10:42:46;;;;;;;56.78;27.63;;;13.90;69.50;;;;;;5057242;28;20056;-82
2022/03/30 10:45:30;;;;;;;62.20;27.65;;;13.90;69.50;;;;;;5057280;28;20021;-82
2022/03/30 10:48:11;;;;;;;57.05;25.20;;;13.80;69.80;;;;;;5050945;28;20404;-82
2022/03/30 10:50:58;;;;;;;49.47;24.65;;;13.80;70.10;;;;;;5037225;28;20021;-82
2022/03/30 10:56:07;;;;;;;53.40;24.27;;;13.90;69.70;;;;;;5037130;28;20100;-82
2022/03/30 10:58:34;;;;;;;51.33;24.80;;;13.90;69.80;;;;;;5042569;28;20029;-82
2022/03/30 11:01:22;;;;;;;59.95;26.27;;;13.70;70.20;;;;;;5056782;28;20021;-82
2022/03/30 11:04:13;;;;;;;59.80;27.58;;;13.60;70.30;;;;;;5056826;28;20025;-82
2022/03/30 11:06:42;;;;;;;65.18;27.05;;;13.70;70.40;;;;;;5051306;28;20029;-82
2022/03/30 11:09:26;;;;;;;63.55;29.48;;;13.80;70.60;;;;;;5036777;28;20033;-83
2022/03/30 11:12:00;;;;;;;55.00;24.42;;;13.80;70.50;;;;;;5048249;28;20039;-82
2022/03/30 11:14:28;;;;;;;58.78;26.95;;;13.80;70.10;;;;;;5037297;28;20106;-82
2022/03/30 11:17:05;;;;;;;56.60;27.10;;;13.80;70.00;;;;;;5036532;28;20052;-82
2022/03/30 11:19:56;;;;;;;55.38;26.33;;;13.70;70.00;;;;;;5035375;28;20136;-82
2022/03/30 11:22:22;;;;;;;64.88;27.77;;;13.60;69.80;;;;;;5036507;28;20025;-82
2022/03/30 11:25:07;;;;;;;62.25;27.55;;;13.40;70.60;;;;;;5036435;28;20368;-83
2022/03/30 11:27:33;;;;;;;67.55;28.83;;;13.40;71.00;;;;;;5035987;28;20112;-82
2022/03/30 11:30:10;;;;;;;65.32;27.90;;;13.60;70.70;;;;;;5036767;28;20033;-82
2022/03/30 11:33:04;;;;;;;64.05;28.05;;;13.60;70.50;;;;;;5051618;28;20040;-83
2022/03/30 11:35:37;;;;;;;64.65;28.15;;;13.30;71.20;;;;;;5035503;28;20041;-83
2022/03/30 11:38:16;;;;;;;70.45;30.65;;;13.50;71.10;;;;;;5035964;28;20025;-83
2022/03/30 11:40:45;;;;;;;61.45;27.58;;;13.80;70.90;;;;;;5036368;28;20032;-81
2022/03/30 11:43:11;;;;;;;56.05;26.48;;;14.00;69.50;;;;;;5071819;28;20032;-82
2022/03/30 11:45:38;;;;;;;58.78;28.27;;;14.00;69.60;;;;;;5055854;28;20031;-82
2022/03/30 11:48:07;;;;;;;62.10;28.30;;;13.80;69.60;;;;;;5055894;28;20079;-84
2022/03/30 11:50:39;;;;;;;57.35;25.70;;;13.80;69.80;;;;;;5045422;28;20044;-82
2022/03/30 11:53:18;;;;;;;64.85;28.73;;;13.70;69.80;;;;;;5035645;28;20612;-82
2022/03/30 11:55:54;;;;;;;60.13;26.67;;;13.60;70.30;;;;;;5035693;28;20038;-80
2022/03/30 11:58:23;;;;;;;61.90;28.67;;;13.60;70.30;;;;;;5035604;28;20086;-82
2022/03/30 12:00:48;;;;;;;63.85;27.88;;;13.60;70.90;;;;;;5040302;28;20797;-84
2022/03/30 12:03:14;;;;;;;58.83;26.38;;;13.80;70.30;;;;;;5033888;28;20087;-84
2022/03/30 12:05:40;;;;;;;60.50;28.02;;;14.10;68.80;;;;;;5043611;28;20120;-84
2022/03/30 12:08:06;;;;;;;63.03;26.60;;;14.30;69.10;;;;;;5049813;28;20032;-83
2022/03/30 12:10:32;;;;;;;57.88;27.02;;;14.30;68.20;;;;;;5036391;28;20077;-84
2022/03/30 12:13:00;;;;;;;69.15;29.17;;;14.00;68.40;;;;;;5054545;28;20456;-83
2022/03/30 12:15:26;;;;;;;68.90;28.40;;;14.10;68.50;;;;;;5035610;28;20427;-84
2022/03/30 12:17:59;;;;;;;65.13;28.58;;;14.10;68.50;;;;;;5035468;28;20124;-84
2022/03/30 12:20:33;;;;;;;65.97;29.75;;;14.00;68.60;;;;;;5035179;28;20028;-84
2022/03/30 12:23:01;;;;;;;68.82;30.00;;;14.00;68.70;;;;;;5035091;28;20091;-84
2022/03/30 12:25:37;;;;;;;69.85;29.73;;;14.20;68.50;;;;;;5035071;28;20360;-83
2022/03/30 12:28:03;;;;;;;60.83;27.90;;;14.30;67.70;;;;;;5035284;28;20021;-84
2022/03/30 12:30:32;;;;;;;62.38;26.58;;;14.60;67.80;;;;;;5034272;28;20037;-83
2022/03/30 12:32:59;;;;;;;63.15;28.70;;;14.40;67.00;;;;;;5035184;28;20462;-84
2022/03/30 12:35:31;;;;;;;62.25;26.80;;;14.30;67.80;;;;;;5035368;28;20503;-83
2022/03/30 12:38:14;;;;;;;65.07;27.27;;;14.30;67.60;;;;;;5033982;28;20079;-84
2022/03/30 12:40:43;;;;;;;69.07;27.02;;;14.30;67.60;;;;;;5052890;28;20036;-83
2022/03/30 12:43:09;;;;;;;61.45;27.98;;;14.20;67.30;;;;;;5047987;28;20021;-83
2022/03/30 12:45:54;;;;;;;61.63;27.52;;;14.10;67.90;;;;;;5035349;28;20507;-83